AUA108 LOWI-LOWW
Flight info
| Callsign | AUA108 |
|---|---|
| Flight time | 0h 40m |
| Altitude | 29000 |
| Route | RTT DCT NEMAL NEMAL2W |
| Aircraft | A320/M-SDE3FGHIRWY/LB1 |
Departure
| Time | 2026-04-26 18:35 |
|---|---|
| Airport | Innsbruck Airport (LOWI) |
Arrival
| Time | 2026-04-26 19:15 |
|---|---|
| Airport | Vienna International Airport (LOWW) |
| Time | Latitude | Longitude | Altitude | Speed | Heading |
|---|---|---|---|---|---|
| 2026-04-26 18:07 | 47.25789 | 11.34752 | 1904 ft | 0 kts | 172° |
| 2026-04-26 18:27 | 47.25793 | 11.34751 | 1886 ft | 3 kts | 173° |
| 2026-04-26 18:27 | 47.25820 | 11.34751 | 1899 ft | 4 kts | 195° |
| 2026-04-26 18:28 | 47.25842 | 11.34768 | 1890 ft | 4 kts | 236° |
| 2026-04-26 18:28 | 47.25849 | 11.34791 | 1891 ft | 0 kts | 261° |
| 2026-04-26 18:31 | 47.25846 | 11.34769 | 1900 ft | 6 kts | 260° |
| 2026-04-26 18:32 | 47.25834 | 11.34675 | 1898 ft | 13 kts | 259° |
| 2026-04-26 18:32 | 47.25815 | 11.34511 | 1901 ft | 19 kts | 261° |
| 2026-04-26 18:32 | 47.25797 | 11.34331 | 1904 ft | 17 kts | 261° |
| 2026-04-26 18:32 | 47.25781 | 11.34169 | 1898 ft | 15 kts | 261° |
| 2026-04-26 18:33 | 47.25768 | 11.34026 | 1900 ft | 13 kts | 270° |
| 2026-04-26 18:33 | 47.25804 | 11.33892 | 1900 ft | 18 kts | 303° |
| 2026-04-26 18:33 | 47.25884 | 11.33720 | 1898 ft | 19 kts | 308° |
| 2026-04-26 18:33 | 47.25943 | 11.33706 | 1899 ft | 6 kts | 74° |
| 2026-04-26 18:34 | 47.25949 | 11.33732 | 1901 ft | 0 kts | 72° |
| 2026-04-26 18:34 | 47.26007 | 11.34209 | 1904 ft | 89 kts | 83° |
| 2026-04-26 18:34 | 47.26147 | 11.35441 | 1913 ft | 151 kts | 79° |
| 2026-04-26 18:35 | 47.26318 | 11.37063 | 2497 ft | 165 kts | 79° |
| 2026-04-26 18:35 | 47.26512 | 11.38744 | 3262 ft | 170 kts | 79° |
| 2026-04-26 18:35 | 47.26746 | 11.40528 | 3752 ft | 185 kts | 77° |
| 2026-04-26 18:35 | 47.27005 | 11.42421 | 4339 ft | 188 kts | 79° |
| 2026-04-26 18:36 | 47.27263 | 11.44305 | 5016 ft | 189 kts | 75° |
| 2026-04-26 18:36 | 47.27608 | 11.46172 | 5641 ft | 191 kts | 73° |
| 2026-04-26 18:36 | 47.27972 | 11.48082 | 6209 ft | 196 kts | 73° |
| 2026-04-26 18:36 | 47.28351 | 11.50039 | 6755 ft | 204 kts | 74° |
| 2026-04-26 18:37 | 47.28747 | 11.52108 | 7239 ft | 215 kts | 73° |
| 2026-04-26 18:37 | 47.29206 | 11.54353 | 7458 ft | 243 kts | 72° |
| 2026-04-26 18:37 | 47.29729 | 11.56844 | 7869 ft | 261 kts | 74° |
| 2026-04-26 18:37 | 47.30201 | 11.59333 | 9071 ft | 241 kts | 75° |
| 2026-04-26 18:38 | 47.30622 | 11.61643 | 10080 ft | 234 kts | 75° |
| 2026-04-26 18:38 | 47.31068 | 11.64024 | 10446 ft | 252 kts | 70° |
| 2026-04-26 18:38 | 47.31933 | 11.66389 | 10697 ft | 275 kts | 54° |
| 2026-04-26 18:38 | 47.33070 | 11.68795 | 10973 ft | 298 kts | 54° |
| 2026-04-26 18:39 | 47.34310 | 11.71396 | 11231 ft | 322 kts | 54° |
| 2026-04-26 18:39 | 47.35643 | 11.74201 | 11463 ft | 345 kts | 54° |
| 2026-04-26 18:39 | 47.37065 | 11.77200 | 11642 ft | 369 kts | 54° |
| 2026-04-26 18:39 | 47.38562 | 11.80362 | 12059 ft | 381 kts | 54° |
| 2026-04-26 18:40 | 47.39981 | 11.83704 | 12708 ft | 387 kts | 63° |
| 2026-04-26 18:40 | 47.41145 | 11.87311 | 13381 ft | 392 kts | 64° |
| 2026-04-26 18:40 | 47.42272 | 11.91002 | 14064 ft | 396 kts | 65° |
| 2026-04-26 18:40 | 47.43385 | 11.94748 | 14673 ft | 400 kts | 65° |
| 2026-04-26 18:41 | 47.44528 | 11.98514 | 15287 ft | 404 kts | 64° |
| 2026-04-26 18:41 | 47.45716 | 12.02290 | 15902 ft | 407 kts | 64° |
| 2026-04-26 18:41 | 47.46937 | 12.06083 | 16516 ft | 410 kts | 64° |
| 2026-04-26 18:41 | 47.48177 | 12.09903 | 17139 ft | 414 kts | 64° |
| 2026-04-26 18:42 | 47.49418 | 12.13734 | 17737 ft | 417 kts | 64° |
| 2026-04-26 18:42 | 47.50680 | 12.17647 | 18324 ft | 421 kts | 64° |
| 2026-04-26 18:42 | 47.51940 | 12.21566 | 18838 ft | 424 kts | 64° |
| 2026-04-26 18:42 | 47.53005 | 12.25594 | 19315 ft | 428 kts | 76° |
| 2026-04-26 18:43 | 47.53628 | 12.29983 | 19786 ft | 432 kts | 78° |
| 2026-04-26 18:43 | 47.54202 | 12.34296 | 20243 ft | 435 kts | 78° |
| 2026-04-26 18:43 | 47.54777 | 12.38713 | 20701 ft | 438 kts | 79° |
| 2026-04-26 18:43 | 47.55351 | 12.43166 | 21158 ft | 441 kts | 78° |
| 2026-04-26 18:44 | 47.55927 | 12.47637 | 21642 ft | 443 kts | 78° |
| 2026-04-26 18:44 | 47.56508 | 12.52133 | 22085 ft | 446 kts | 78° |
| 2026-04-26 18:44 | 47.57096 | 12.56656 | 22490 ft | 449 kts | 78° |
| 2026-04-26 18:44 | 47.57690 | 12.61217 | 22905 ft | 452 kts | 78° |
| 2026-04-26 18:45 | 47.58287 | 12.65810 | 23261 ft | 457 kts | 78° |
| 2026-04-26 18:45 | 47.58886 | 12.70457 | 23575 ft | 462 kts | 78° |
| 2026-04-26 18:45 | 47.59484 | 12.75143 | 23930 ft | 465 kts | 78° |
| 2026-04-26 18:45 | 47.60084 | 12.79857 | 24245 ft | 467 kts | 78° |
| 2026-04-26 18:46 | 47.60688 | 12.84610 | 24550 ft | 469 kts | 79° |
| 2026-04-26 18:46 | 47.61291 | 12.89366 | 24852 ft | 472 kts | 79° |
| 2026-04-26 18:46 | 47.61898 | 12.94155 | 25170 ft | 474 kts | 79° |
| 2026-04-26 18:46 | 47.62506 | 12.98970 | 25467 ft | 476 kts | 79° |
| 2026-04-26 18:47 | 47.63114 | 13.03795 | 25762 ft | 478 kts | 79° |
| 2026-04-26 18:47 | 47.63723 | 13.08638 | 26066 ft | 479 kts | 79° |
| 2026-04-26 18:47 | 47.64335 | 13.13513 | 26299 ft | 482 kts | 79° |
| 2026-04-26 18:47 | 47.64944 | 13.18417 | 26540 ft | 485 kts | 79° |
| 2026-04-26 18:48 | 47.65549 | 13.23342 | 26790 ft | 487 kts | 79° |
| 2026-04-26 18:48 | 47.66153 | 13.28286 | 27056 ft | 488 kts | 79° |
| 2026-04-26 18:48 | 47.66761 | 13.33255 | 27344 ft | 490 kts | 79° |
| 2026-04-26 18:48 | 47.67372 | 13.38230 | 27594 ft | 490 kts | 79° |
| 2026-04-26 18:49 | 47.67983 | 13.43213 | 27833 ft | 491 kts | 79° |
| 2026-04-26 18:49 | 47.68589 | 13.48195 | 28151 ft | 490 kts | 79° |
| 2026-04-26 18:49 | 47.69192 | 13.53171 | 28483 ft | 489 kts | 79° |
| 2026-04-26 18:49 | 47.69791 | 13.58144 | 28788 ft | 489 kts | 79° |
| 2026-04-26 18:50 | 47.70389 | 13.63118 | 29010 ft | 491 kts | 79° |
| 2026-04-26 18:50 | 47.70989 | 13.68116 | 29172 ft | 492 kts | 79° |
| 2026-04-26 18:50 | 47.72181 | 13.78117 | 28837 ft | 492 kts | 79° |
| 2026-04-26 18:51 | 47.72774 | 13.83123 | 28564 ft | 492 kts | 79° |
| 2026-04-26 18:51 | 47.73358 | 13.88110 | 27839 ft | 489 kts | 79° |
| 2026-04-26 18:51 | 47.73939 | 13.93091 | 26673 ft | 491 kts | 80° |
| 2026-04-26 18:51 | 47.74525 | 13.98101 | 25512 ft | 493 kts | 80° |
| 2026-04-26 18:52 | 47.75110 | 14.03120 | 24361 ft | 494 kts | 80° |
| 2026-04-26 18:52 | 47.75498 | 14.06448 | 23705 ft | 495 kts | 80° |
| 2026-04-26 18:52 | 47.76278 | 14.13176 | 23205 ft | 493 kts | 80° |
| 2026-04-26 18:52 | 47.76864 | 14.18284 | 22926 ft | 492 kts | 80° |
| 2026-04-26 18:53 | 47.77424 | 14.23195 | 22669 ft | 490 kts | 80° |
| 2026-04-26 18:53 | 47.77991 | 14.28177 | 22412 ft | 488 kts | 80° |
| 2026-04-26 18:53 | 47.78555 | 14.33146 | 22147 ft | 486 kts | 80° |
| 2026-04-26 18:53 | 47.79114 | 14.38072 | 21631 ft | 479 kts | 80° |
| 2026-04-26 18:54 | 47.79659 | 14.42932 | 20805 ft | 474 kts | 80° |
| 2026-04-26 18:54 | 47.80197 | 14.47733 | 20028 ft | 468 kts | 80° |
| 2026-04-26 18:54 | 47.80722 | 14.52409 | 19325 ft | 462 kts | 79° |
| 2026-04-26 18:54 | 47.81254 | 14.57162 | 18639 ft | 457 kts | 79° |
| 2026-04-26 18:55 | 47.81763 | 14.61731 | 17858 ft | 452 kts | 79° |
| 2026-04-26 18:55 | 47.82279 | 14.66397 | 17353 ft | 450 kts | 79° |
| 2026-04-26 18:55 | 47.82777 | 14.70923 | 17167 ft | 449 kts | 79° |
| 2026-04-26 18:55 | 47.83280 | 14.75515 | 17207 ft | 450 kts | 79° |
| 2026-04-26 18:56 | 47.83782 | 14.80109 | 17203 ft | 450 kts | 79° |
| 2026-04-26 18:56 | 47.84284 | 14.84705 | 17201 ft | 450 kts | 79° |
| 2026-04-26 18:56 | 47.84784 | 14.89307 | 17208 ft | 450 kts | 79° |
| 2026-04-26 18:56 | 47.85279 | 14.93915 | 17217 ft | 451 kts | 79° |
| 2026-04-26 18:57 | 47.85771 | 14.98518 | 17216 ft | 449 kts | 79° |
| 2026-04-26 18:57 | 47.86102 | 15.01619 | 17218 ft | 449 kts | 79° |
| 2026-04-26 18:57 | 47.86494 | 15.07754 | 17223 ft | 450 kts | 85° |
| 2026-04-26 18:57 | 47.86669 | 15.12414 | 17224 ft | 451 kts | 85° |
| 2026-04-26 18:58 | 47.86814 | 15.17065 | 17149 ft | 448 kts | 86° |
| 2026-04-26 18:58 | 47.86941 | 15.21676 | 16469 ft | 443 kts | 86° |
| 2026-04-26 18:58 | 47.87064 | 15.26244 | 15735 ft | 440 kts | 86° |
| 2026-04-26 18:58 | 47.87189 | 15.30778 | 15061 ft | 436 kts | 86° |
| 2026-04-26 18:59 | 47.87322 | 15.35270 | 14388 ft | 433 kts | 85° |
| 2026-04-26 18:59 | 47.87456 | 15.39733 | 13720 ft | 430 kts | 85° |
| 2026-04-26 18:59 | 47.87590 | 15.44175 | 13328 ft | 429 kts | 85° |
| 2026-04-26 18:59 | 47.87724 | 15.48608 | 13134 ft | 427 kts | 85° |
| 2026-04-26 19:00 | 47.87854 | 15.53000 | 12434 ft | 423 kts | 85° |
| 2026-04-26 19:00 | 47.87981 | 15.57366 | 11726 ft | 420 kts | 85° |
| 2026-04-26 19:00 | 47.88118 | 15.61691 | 10991 ft | 416 kts | 85° |
| 2026-04-26 19:00 | 47.88259 | 15.65971 | 10489 ft | 408 kts | 85° |
| 2026-04-26 19:01 | 47.88397 | 15.70098 | 10366 ft | 389 kts | 85° |
| 2026-04-26 19:01 | 47.88527 | 15.74033 | 10246 ft | 373 kts | 85° |
| 2026-04-26 19:01 | 47.88649 | 15.77805 | 10118 ft | 357 kts | 85° |
| 2026-04-26 19:01 | 47.88768 | 15.81422 | 9987 ft | 343 kts | 85° |
| 2026-04-26 19:02 | 47.88886 | 15.84856 | 9833 ft | 329 kts | 85° |
| 2026-04-26 19:02 | 47.88969 | 15.88237 | 9645 ft | 316 kts | 85° |
| 2026-04-26 19:02 | 47.89039 | 15.91479 | 9354 ft | 311 kts | 85° |
| 2026-04-26 19:02 | 47.89086 | 15.93598 | 9114 ft | 308 kts | 85° |
| 2026-04-26 19:03 | 47.89183 | 15.97804 | 8547 ft | 307 kts | 85° |
| 2026-04-26 19:03 | 47.89266 | 16.01060 | 8042 ft | 309 kts | 85° |
| 2026-04-26 19:03 | 47.89353 | 16.04272 | 7379 ft | 315 kts | 85° |
| 2026-04-26 19:03 | 47.89450 | 16.07466 | 7252 ft | 303 kts | 85° |
| 2026-04-26 19:04 | 47.89546 | 16.10547 | 7040 ft | 294 kts | 85° |
| 2026-04-26 19:04 | 47.89637 | 16.13566 | 6692 ft | 290 kts | 85° |
| 2026-04-26 19:04 | 47.89729 | 16.16546 | 6316 ft | 286 kts | 85° |
| 2026-04-26 19:04 | 47.89825 | 16.19484 | 6029 ft | 281 kts | 85° |
| 2026-04-26 19:05 | 47.89999 | 16.25045 | 6009 ft | 251 kts | 85° |
| 2026-04-26 19:05 | 47.90073 | 16.27584 | 6013 ft | 245 kts | 85° |
| 2026-04-26 19:05 | 47.90138 | 16.30142 | 6016 ft | 249 kts | 85° |
| 2026-04-26 19:06 | 47.90170 | 16.32720 | 6011 ft | 249 kts | 85° |
| 2026-04-26 19:06 | 47.90194 | 16.35306 | 6011 ft | 250 kts | 85° |
| 2026-04-26 19:06 | 47.90352 | 16.37869 | 6016 ft | 248 kts | 77° |
| 2026-04-26 19:06 | 47.90642 | 16.40373 | 6008 ft | 250 kts | 76° |
| 2026-04-26 19:07 | 47.90955 | 16.42928 | 6013 ft | 251 kts | 75° |
| 2026-04-26 19:07 | 47.91271 | 16.45485 | 6013 ft | 251 kts | 75° |
| 2026-04-26 19:07 | 47.91589 | 16.48041 | 6013 ft | 251 kts | 75° |
| 2026-04-26 19:07 | 47.91907 | 16.50601 | 6014 ft | 251 kts | 75° |
| 2026-04-26 19:08 | 47.92224 | 16.53159 | 6015 ft | 251 kts | 76° |
| 2026-04-26 19:08 | 47.92542 | 16.55719 | 6032 ft | 251 kts | 75° |
| 2026-04-26 19:08 | 47.92859 | 16.58268 | 5824 ft | 249 kts | 76° |
| 2026-04-26 19:08 | 47.93170 | 16.60785 | 5537 ft | 245 kts | 76° |
| 2026-04-26 19:09 | 47.93523 | 16.63248 | 5250 ft | 239 kts | 65° |
| 2026-04-26 19:09 | 47.94233 | 16.65444 | 4809 ft | 237 kts | 57° |
| 2026-04-26 19:09 | 47.95060 | 16.67548 | 4559 ft | 230 kts | 56° |
| 2026-04-26 19:09 | 47.95877 | 16.69574 | 4277 ft | 226 kts | 56° |
| 2026-04-26 19:10 | 47.96691 | 16.71567 | 3948 ft | 224 kts | 56° |
| 2026-04-26 19:10 | 47.97508 | 16.73538 | 3618 ft | 222 kts | 56° |
| 2026-04-26 19:10 | 47.98502 | 16.75239 | 3309 ft | 216 kts | 33° |
| 2026-04-26 19:10 | 47.99797 | 16.76356 | 3035 ft | 213 kts | 26° |
| 2026-04-26 19:11 | 48.01128 | 16.77358 | 3002 ft | 215 kts | 25° |
| 2026-04-26 19:11 | 48.02558 | 16.77890 | 3005 ft | 215 kts | 356° |
| 2026-04-26 19:11 | 48.03911 | 16.77149 | 3005 ft | 207 kts | 322° |
| 2026-04-26 19:11 | 48.04848 | 16.75519 | 3004 ft | 205 kts | 307° |
| 2026-04-26 19:12 | 48.05568 | 16.73745 | 2942 ft | 198 kts | 302° |
| 2026-04-26 19:12 | 48.06178 | 16.71973 | 2740 ft | 186 kts | 300° |
| 2026-04-26 19:12 | 48.06737 | 16.70287 | 2527 ft | 174 kts | 300° |
| 2026-04-26 19:12 | 48.07259 | 16.68700 | 2309 ft | 167 kts | 300° |
| 2026-04-26 19:13 | 48.07764 | 16.67160 | 2092 ft | 164 kts | 300° |
| 2026-04-26 19:13 | 48.08253 | 16.65669 | 1841 ft | 153 kts | 300° |
| 2026-04-26 19:13 | 48.08704 | 16.64289 | 1641 ft | 145 kts | 300° |
| 2026-04-26 19:13 | 48.09142 | 16.62954 | 1452 ft | 141 kts | 300° |
| 2026-04-26 19:14 | 48.09571 | 16.61643 | 1260 ft | 139 kts | 299° |
| 2026-04-26 19:14 | 48.09994 | 16.60350 | 1063 ft | 139 kts | 298° |
| 2026-04-26 19:14 | 48.10417 | 16.59057 | 882 ft | 138 kts | 298° |
| 2026-04-26 19:14 | 48.10559 | 16.58623 | 818 ft | 138 kts | 298° |
| 2026-04-26 19:15 | 48.11244 | 16.56528 | 620 ft | 118 kts | 296° |
| 2026-04-26 19:15 | 48.11524 | 16.55662 | 621 ft | 70 kts | 296° |
| 2026-04-26 19:15 | 48.11695 | 16.55279 | 610 ft | 39 kts | 316° |
| 2026-04-26 19:15 | 48.11808 | 16.55162 | 620 ft | 0 kts | 341° |
| 2026-04-26 19:17 | 48.11844 | 16.55150 | 612 ft | 13 kts | 354° |
| 2026-04-26 19:17 | 48.11939 | 16.55223 | 615 ft | 17 kts | 73° |
| 2026-04-26 19:18 | 48.11905 | 16.55372 | 612 ft | 15 kts | 114° |
| 2026-04-26 19:18 | 48.11917 | 16.55475 | 625 ft | 9 kts | 64° |
| 2026-04-26 19:18 | 48.11944 | 16.55556 | 618 ft | 6 kts | 63° |
| 2026-04-26 19:18 | 48.11952 | 16.55580 | 618 ft | 0 kts | 66° |
| 2026-04-26 19:19 | 48.11952 | 16.55582 | 618 ft | 0 kts | 66° |
| 2026-04-26 19:19 | 48.11953 | 16.55583 | 617 ft | 0 kts | 67° |
| 2026-04-26 19:19 | 48.11954 | 16.55589 | 615 ft | 0 kts | 68° |